sensor_id;sensor_type;location;lat;lon;timestamp;P1;durP1;ratioP1;P2;durP2;ratioP2
69951;SDS011;60406;48.408;13.392;2023-08-12T00:03:33;7.35;;;6.32;;
69951;SDS011;60406;48.408;13.392;2023-08-12T00:08:34;7.97;;;6.57;;
69951;SDS011;60406;48.408;13.392;2023-08-12T00:13:35;8.02;;;7.22;;
69951;SDS011;60406;48.408;13.392;2023-08-12T00:18:36;17.83;;;7.80;;
69951;SDS011;60406;48.408;13.392;2023-08-12T00:23:37;8.60;;;7.68;;
69951;SDS011;60406;48.408;13.392;2023-08-12T00:28:41;9.30;;;7.38;;
69951;SDS011;60406;48.408;13.392;2023-08-12T00:33:42;7.80;;;7.10;;
69951;SDS011;60406;48.408;13.392;2023-08-12T00:38:43;7.68;;;6.90;;
69951;SDS011;60406;48.408;13.392;2023-08-12T00:43:44;8.60;;;7.40;;
69951;SDS011;60406;48.408;13.392;2023-08-12T00:48:45;9.00;;;7.30;;
69951;SDS011;60406;48.408;13.392;2023-08-12T00:53:45;9.73;;;6.30;;
69951;SDS011;60406;48.408;13.392;2023-08-12T00:58:47;6.93;;;6.22;;
69951;SDS011;60406;48.408;13.392;2023-08-12T01:03:48;8.35;;;7.25;;
69951;SDS011;60406;48.408;13.392;2023-08-12T01:08:49;7.32;;;6.63;;
69951;SDS011;60406;48.408;13.392;2023-08-12T01:13:52;9.48;;;6.97;;
69951;SDS011;60406;48.408;13.392;2023-08-12T01:19:09;10.00;;;6.88;;
69951;SDS011;60406;48.408;13.392;2023-08-12T01:24:11;7.25;;;6.45;;
69951;SDS011;60406;48.408;13.392;2023-08-12T01:29:12;8.05;;;6.90;;
69951;SDS011;60406;48.408;13.392;2023-08-12T01:34:26;7.95;;;6.80;;
69951;SDS011;60406;48.408;13.392;2023-08-12T01:39:40;11.27;;;7.57;;
69951;SDS011;60406;48.408;13.392;2023-08-12T01:44:41;7.85;;;7.05;;
69951;SDS011;60406;48.408;13.392;2023-08-12T01:49:43;7.53;;;6.75;;
69951;SDS011;60406;48.408;13.392;2023-08-12T01:54:43;7.82;;;6.88;;
69951;SDS011;60406;48.408;13.392;2023-08-12T01:59:44;8.02;;;7.22;;
69951;SDS011;60406;48.408;13.392;2023-08-12T02:04:45;10.57;;;8.77;;
69951;SDS011;60406;48.408;13.392;2023-08-12T02:09:46;11.40;;;9.95;;
69951;SDS011;60406;48.408;13.392;2023-08-12T02:14:47;8.35;;;7.53;;
69951;SDS011;60406;48.408;13.392;2023-08-12T02:19:48;8.25;;;7.45;;
69951;SDS011;60406;48.408;13.392;2023-08-12T02:24:49;11.38;;;8.98;;
69951;SDS011;60406;48.408;13.392;2023-08-12T02:29:49;8.65;;;7.78;;
69951;SDS011;60406;48.408;13.392;2023-08-12T02:34:50;8.65;;;7.85;;
69951;SDS011;60406;48.408;13.392;2023-08-12T02:39:51;9.13;;;7.75;;
69951;SDS011;60406;48.408;13.392;2023-08-12T02:44:52;9.95;;;8.90;;
69951;SDS011;60406;48.408;13.392;2023-08-12T02:49:53;10.25;;;9.25;;
69951;SDS011;60406;48.408;13.392;2023-08-12T02:54:54;10.20;;;9.18;;
69951;SDS011;60406;48.408;13.392;2023-08-12T02:59:55;11.68;;;8.95;;
69951;SDS011;60406;48.408;13.392;2023-08-12T03:04:56;10.10;;;9.15;;
69951;SDS011;60406;48.408;13.392;2023-08-12T03:09:58;10.38;;;9.00;;
69951;SDS011;60406;48.408;13.392;2023-08-12T03:14:59;9.25;;;8.25;;
69951;SDS011;60406;48.408;13.392;2023-08-12T03:19:59;12.05;;;8.32;;
69951;SDS011;60406;48.408;13.392;2023-08-12T03:25:00;12.00;;;9.32;;
69951;SDS011;60406;48.408;13.392;2023-08-12T03:30:01;8.75;;;7.95;;
69951;SDS011;60406;48.408;13.392;2023-08-12T03:35:02;9.85;;;8.88;;
69951;SDS011;60406;48.408;13.392;2023-08-12T03:40:03;11.75;;;9.75;;
69951;SDS011;60406;48.408;13.392;2023-08-12T03:45:04;12.00;;;9.52;;
69951;SDS011;60406;48.408;13.392;2023-08-12T03:50:06;11.75;;;10.00;;
69951;SDS011;60406;48.408;13.392;2023-08-12T03:55:07;11.05;;;9.68;;
69951;SDS011;60406;48.408;13.392;2023-08-12T04:00:08;11.90;;;9.35;;
69951;SDS011;60406;48.408;13.392;2023-08-12T04:05:09;10.82;;;8.07;;
69951;SDS011;60406;48.408;13.392;2023-08-12T04:10:10;12.70;;;7.80;;
69951;SDS011;60406;48.408;13.392;2023-08-12T04:15:11;8.95;;;8.05;;
69951;SDS011;60406;48.408;13.392;2023-08-12T04:20:12;10.23;;;9.23;;
69951;SDS011;60406;48.408;13.392;2023-08-12T04:25:13;10.10;;;9.10;;
69951;SDS011;60406;48.408;13.392;2023-08-12T04:30:14;11.13;;;9.75;;
69951;SDS011;60406;48.408;13.392;2023-08-12T04:35:15;11.73;;;8.02;;
69951;SDS011;60406;48.408;13.392;2023-08-12T04:40:15;16.70;;;10.25;;
69951;SDS011;60406;48.408;13.392;2023-08-12T04:45:26;11.05;;;9.95;;
69951;SDS011;60406;48.408;13.392;2023-08-12T04:50:30;10.73;;;8.68;;
69951;SDS011;60406;48.408;13.392;2023-08-12T04:55:31;10.60;;;9.27;;
69951;SDS011;60406;48.408;13.392;2023-08-12T05:00:32;9.27;;;8.38;;
69951;SDS011;60406;48.408;13.392;2023-08-12T05:05:33;10.35;;;9.13;;
69951;SDS011;60406;48.408;13.392;2023-08-12T05:10:34;11.35;;;9.25;;
69951;SDS011;60406;48.408;13.392;2023-08-12T05:15:35;10.48;;;9.25;;
69951;SDS011;60406;48.408;13.392;2023-08-12T05:20:36;10.68;;;9.65;;
69951;SDS011;60406;48.408;13.392;2023-08-12T05:25:38;10.25;;;9.25;;
69951;SDS011;60406;48.408;13.392;2023-08-12T05:30:39;11.02;;;9.18;;
69951;SDS011;60406;48.408;13.392;2023-08-12T05:35:40;12.98;;;8.93;;
69951;SDS011;60406;48.408;13.392;2023-08-12T05:40:41;10.85;;;8.80;;
69951;SDS011;60406;48.408;13.392;2023-08-12T05:45:42;12.75;;;9.35;;
69951;SDS011;60406;48.408;13.392;2023-08-12T05:50:43;10.70;;;9.70;;
69951;SDS011;60406;48.408;13.392;2023-08-12T05:55:44;12.05;;;10.23;;
69951;SDS011;60406;48.408;13.392;2023-08-12T06:00:44;10.85;;;9.75;;
69951;SDS011;60406;48.408;13.392;2023-08-12T06:05:46;11.50;;;9.88;;
69951;SDS011;60406;48.408;13.392;2023-08-12T06:10:47;11.18;;;9.18;;
69951;SDS011;60406;48.408;13.392;2023-08-12T06:15:48;11.20;;;9.30;;
69951;SDS011;60406;48.408;13.392;2023-08-12T06:20:49;9.15;;;8.25;;
69951;SDS011;60406;48.408;13.392;2023-08-12T06:25:49;11.70;;;8.48;;
69951;SDS011;60406;48.408;13.392;2023-08-12T06:30:50;8.80;;;7.90;;
69951;SDS011;60406;48.408;13.392;2023-08-12T06:35:51;7.78;;;7.00;;
69951;SDS011;60406;48.408;13.392;2023-08-12T06:40:52;7.30;;;6.38;;
69951;SDS011;60406;48.408;13.392;2023-08-12T06:45:53;7.10;;;5.90;;
69951;SDS011;60406;48.408;13.392;2023-08-12T06:50:54;6.07;;;5.47;;
69951;SDS011;60406;48.408;13.392;2023-08-12T06:55:55;7.03;;;5.75;;
69951;SDS011;60406;48.408;13.392;2023-08-12T07:00:56;9.38;;;6.22;;
69951;SDS011;60406;48.408;13.392;2023-08-12T07:05:57;7.55;;;6.10;;
69951;SDS011;60406;48.408;13.392;2023-08-12T07:10:58;6.03;;;5.38;;
69951;SDS011;60406;48.408;13.392;2023-08-12T07:15:58;8.73;;;5.57;;
69951;SDS011;60406;48.408;13.392;2023-08-12T07:20:59;7.82;;;5.55;;
69951;SDS011;60406;48.408;13.392;2023-08-12T07:26:00;9.52;;;5.65;;
69951;SDS011;60406;48.408;13.392;2023-08-12T07:31:01;9.35;;;5.55;;
69951;SDS011;60406;48.408;13.392;2023-08-12T07:36:02;6.85;;;5.97;;
69951;SDS011;60406;48.408;13.392;2023-08-12T07:41:03;8.73;;;4.90;;
69951;SDS011;60406;48.408;13.392;2023-08-12T07:46:04;6.05;;;5.43;;
69951;SDS011;60406;48.408;13.392;2023-08-12T07:51:05;5.20;;;4.70;;
69951;SDS011;60406;48.408;13.392;2023-08-12T07:56:05;4.68;;;4.13;;
69951;SDS011;60406;48.408;13.392;2023-08-12T08:01:06;10.48;;;4.47;;
69951;SDS011;60406;48.408;13.392;2023-08-12T08:06:07;5.03;;;4.53;;
69951;SDS011;60406;48.408;13.392;2023-08-12T08:11:08;5.03;;;3.95;;
69951;SDS011;60406;48.408;13.392;2023-08-12T08:16:09;9.68;;;3.90;;
69951;SDS011;60406;48.408;13.392;2023-08-12T08:21:10;5.68;;;4.30;;
69951;SDS011;60406;48.408;13.392;2023-08-12T08:26:11;6.15;;;4.38;;
69951;SDS011;60406;48.408;13.392;2023-08-12T08:31:12;5.38;;;4.03;;
69951;SDS011;60406;48.408;13.392;2023-08-12T08:36:13;4.93;;;4.43;;
69951;SDS011;60406;48.408;13.392;2023-08-12T08:41:14;4.60;;;3.80;;
69951;SDS011;60406;48.408;13.392;2023-08-12T08:46:17;5.53;;;3.70;;
69951;SDS011;60406;48.408;13.392;2023-08-12T08:51:19;6.55;;;3.50;;
69951;SDS011;60406;48.408;13.392;2023-08-12T08:56:20;5.45;;;3.78;;
69951;SDS011;60406;48.408;13.392;2023-08-12T09:01:21;4.97;;;3.95;;
69951;SDS011;60406;48.408;13.392;2023-08-12T09:06:24;3.80;;;3.40;;
69951;SDS011;60406;48.408;13.392;2023-08-12T09:11:25;6.28;;;3.50;;
69951;SDS011;60406;48.408;13.392;2023-08-12T09:16:26;5.28;;;3.25;;
69951;SDS011;60406;48.408;13.392;2023-08-12T09:21:27;5.43;;;3.05;;
69951;SDS011;60406;48.408;13.392;2023-08-12T09:26:28;5.82;;;3.67;;
69951;SDS011;60406;48.408;13.392;2023-08-12T09:31:29;3.50;;;3.20;;
69951;SDS011;60406;48.408;13.392;2023-08-12T09:36:31;5.03;;;3.05;;
69951;SDS011;60406;48.408;13.392;2023-08-12T09:41:32;7.43;;;3.50;;
69951;SDS011;60406;48.408;13.392;2023-08-12T09:46:33;4.32;;;3.10;;
69951;SDS011;60406;48.408;13.392;2023-08-12T09:51:35;3.75;;;3.28;;
69951;SDS011;60406;48.408;13.392;2023-08-12T09:56:36;4.05;;;2.83;;
69951;SDS011;60406;48.408;13.392;2023-08-12T10:01:37;5.03;;;3.92;;
69951;SDS011;60406;48.408;13.392;2023-08-12T10:06:38;3.33;;;2.72;;
69951;SDS011;60406;48.408;13.392;2023-08-12T10:11:41;5.43;;;3.35;;
69951;SDS011;60406;48.408;13.392;2023-08-12T10:16:45;3.30;;;3.00;;
69951;SDS011;60406;48.408;13.392;2023-08-12T10:21:48;4.00;;;3.15;;
69951;SDS011;60406;48.408;13.392;2023-08-12T10:26:49;2.83;;;2.63;;
69951;SDS011;60406;48.408;13.392;2023-08-12T10:31:51;2.87;;;2.63;;
69951;SDS011;60406;48.408;13.392;2023-08-12T10:37:00;3.00;;;2.70;;
69951;SDS011;60406;48.408;13.392;2023-08-12T10:42:02;4.15;;;3.10;;
69951;SDS011;60406;48.408;13.392;2023-08-12T10:47:05;3.70;;;3.03;;
69951;SDS011;60406;48.408;13.392;2023-08-12T10:52:19;3.65;;;3.13;;
69951;SDS011;60406;48.408;13.392;2023-08-12T10:57:44;12.40;;;4.18;;
69951;SDS011;60406;48.408;13.392;2023-08-12T11:02:45;3.10;;;2.80;;
69951;SDS011;60406;48.408;13.392;2023-08-12T11:07:47;4.97;;;2.70;;
69951;SDS011;60406;48.408;13.392;2023-08-12T11:17:53;4.40;;;2.95;;
69951;SDS011;60406;48.408;13.392;2023-08-12T11:22:54;11.73;;;3.53;;
69951;SDS011;60406;48.408;13.392;2023-08-12T11:27:55;4.88;;;2.65;;
69951;SDS011;60406;48.408;13.392;2023-08-12T11:32:56;6.18;;;2.30;;
69951;SDS011;60406;48.408;13.392;2023-08-12T11:37:57;4.57;;;2.13;;
69951;SDS011;60406;48.408;13.392;2023-08-12T11:42:59;2.70;;;2.50;;
69951;SDS011;60406;48.408;13.392;2023-08-12T11:48:00;4.10;;;2.33;;
69951;SDS011;60406;48.408;13.392;2023-08-12T11:53:01;3.85;;;2.17;;
69951;SDS011;60406;48.408;13.392;2023-08-12T11:58:02;3.05;;;2.15;;
69951;SDS011;60406;48.408;13.392;2023-08-12T12:03:02;4.28;;;1.65;;
69951;SDS011;60406;48.408;13.392;2023-08-12T12:08:04;3.45;;;1.95;;
69951;SDS011;60406;48.408;13.392;2023-08-12T12:13:05;1.40;;;1.30;;
69951;SDS011;60406;48.408;13.392;2023-08-12T12:18:10;1.70;;;1.40;;
69951;SDS011;60406;48.408;13.392;2023-08-12T12:23:11;2.08;;;1.63;;
69951;SDS011;60406;48.408;13.392;2023-08-12T12:28:12;2.85;;;1.77;;
69951;SDS011;60406;48.408;13.392;2023-08-12T12:33:13;5.68;;;1.52;;
69951;SDS011;60406;48.408;13.392;2023-08-12T12:38:14;5.22;;;1.40;;
69951;SDS011;60406;48.408;13.392;2023-08-12T12:43:15;1.95;;;1.40;;
69951;SDS011;60406;48.408;13.392;2023-08-12T12:48:16;1.80;;;1.70;;
69951;SDS011;60406;48.408;13.392;2023-08-12T12:53:17;2.22;;;1.73;;
69951;SDS011;60406;48.408;13.392;2023-08-12T12:58:17;4.22;;;1.65;;
69951;SDS011;60406;48.408;13.392;2023-08-12T13:03:18;2.30;;;1.40;;
69951;SDS011;60406;48.408;13.392;2023-08-12T13:08:19;1.67;;;1.35;;
69951;SDS011;60406;48.408;13.392;2023-08-12T13:13:20;2.55;;;1.50;;
69951;SDS011;60406;48.408;13.392;2023-08-12T13:18:21;1.98;;;1.77;;
69951;SDS011;60406;48.408;13.392;2023-08-12T13:28:22;1.40;;;1.30;;
69951;SDS011;60406;48.408;13.392;2023-08-12T13:33:23;3.05;;;1.80;;
69951;SDS011;60406;48.408;13.392;2023-08-12T13:38:24;5.07;;;1.60;;
69951;SDS011;60406;48.408;13.392;2023-08-12T13:43:25;2.85;;;1.48;;
69951;SDS011;60406;48.408;13.392;2023-08-12T13:48:26;2.05;;;1.30;;
69951;SDS011;60406;48.408;13.392;2023-08-12T13:53:27;1.48;;;1.30;;
69951;SDS011;60406;48.408;13.392;2023-08-12T13:58:28;3.78;;;1.42;;
69951;SDS011;60406;48.408;13.392;2023-08-12T14:03:28;1.42;;;1.33;;
69951;SDS011;60406;48.408;13.392;2023-08-12T14:08:29;2.80;;;1.30;;
69951;SDS011;60406;48.408;13.392;2023-08-12T14:13:30;1.67;;;1.25;;
69951;SDS011;60406;48.408;13.392;2023-08-12T14:18:31;2.75;;;1.33;;
69951;SDS011;60406;48.408;13.392;2023-08-12T14:23:32;1.60;;;1.50;;
69951;SDS011;60406;48.408;13.392;2023-08-12T14:28:33;5.32;;;1.35;;
69951;SDS011;60406;48.408;13.392;2023-08-12T14:33:34;2.33;;;1.10;;
69951;SDS011;60406;48.408;13.392;2023-08-12T14:38:35;1.00;;;0.95;;
69951;SDS011;60406;48.408;13.392;2023-08-12T14:43:36;4.35;;;1.25;;
69951;SDS011;60406;48.408;13.392;2023-08-12T14:48:36;1.30;;;1.20;;
69951;SDS011;60406;48.408;13.392;2023-08-12T14:53:37;1.55;;;1.08;;
69951;SDS011;60406;48.408;13.392;2023-08-12T14:58:38;1.40;;;1.30;;
69951;SDS011;60406;48.408;13.392;2023-08-12T15:03:39;1.48;;;1.30;;
69951;SDS011;60406;48.408;13.392;2023-08-12T15:08:40;1.25;;;1.13;;
69951;SDS011;60406;48.408;13.392;2023-08-12T15:18:42;1.40;;;1.30;;
69951;SDS011;60406;48.408;13.392;2023-08-12T15:23:42;1.25;;;1.15;;
69951;SDS011;60406;48.408;13.392;2023-08-12T15:28:43;1.60;;;1.50;;
69951;SDS011;60406;48.408;13.392;2023-08-12T15:33:44;2.08;;;1.58;;
69951;SDS011;60406;48.408;13.392;2023-08-12T15:38:48;1.52;;;1.30;;
69951;SDS011;60406;48.408;13.392;2023-08-12T15:43:49;5.18;;;1.70;;
69951;SDS011;60406;48.408;13.392;2023-08-12T15:48:50;5.10;;;1.63;;
69951;SDS011;60406;48.408;13.392;2023-08-12T15:53:51;2.50;;;1.70;;
69951;SDS011;60406;48.408;13.392;2023-08-12T15:58:51;2.67;;;1.70;;
69951;SDS011;60406;48.408;13.392;2023-08-12T16:03:52;2.23;;;1.70;;
69951;SDS011;60406;48.408;13.392;2023-08-12T16:08:53;3.92;;;2.55;;
69951;SDS011;60406;48.408;13.392;2023-08-12T16:13:54;1.95;;;1.83;;
69951;SDS011;60406;48.408;13.392;2023-08-12T16:18:55;5.05;;;1.90;;
69951;SDS011;60406;48.408;13.392;2023-08-12T16:23:56;2.58;;;2.38;;
69951;SDS011;60406;48.408;13.392;2023-08-12T16:28:57;6.38;;;2.42;;
69951;SDS011;60406;48.408;13.392;2023-08-12T16:33:58;4.75;;;3.75;;
69951;SDS011;60406;48.408;13.392;2023-08-12T16:38:59;3.55;;;2.90;;
69951;SDS011;60406;48.408;13.392;2023-08-12T16:43:59;2.28;;;2.08;;
69951;SDS011;60406;48.408;13.392;2023-08-12T16:49:00;3.45;;;2.10;;
69951;SDS011;60406;48.408;13.392;2023-08-12T16:54:01;3.75;;;2.25;;
69951;SDS011;60406;48.408;13.392;2023-08-12T16:59:02;2.50;;;2.25;;
69951;SDS011;60406;48.408;13.392;2023-08-12T17:04:03;4.15;;;2.90;;
69951;SDS011;60406;48.408;13.392;2023-08-12T17:09:04;4.70;;;2.35;;
69951;SDS011;60406;48.408;13.392;2023-08-12T17:14:05;4.40;;;2.30;;
69951;SDS011;60406;48.408;13.392;2023-08-12T17:19:07;2.20;;;2.00;;
69951;SDS011;60406;48.408;13.392;2023-08-12T17:24:08;2.17;;;2.00;;
69951;SDS011;60406;48.408;13.392;2023-08-12T17:29:09;7.22;;;3.03;;
69951;SDS011;60406;48.408;13.392;2023-08-12T17:34:10;4.32;;;3.00;;
69951;SDS011;60406;48.408;13.392;2023-08-12T17:39:10;2.53;;;2.08;;
69951;SDS011;60406;48.408;13.392;2023-08-12T17:44:11;6.10;;;2.45;;
69951;SDS011;60406;48.408;13.392;2023-08-12T17:49:12;2.45;;;2.25;;
69951;SDS011;60406;48.408;13.392;2023-08-12T17:54:13;2.30;;;2.10;;
69951;SDS011;60406;48.408;13.392;2023-08-12T17:59:14;2.40;;;2.17;;
69951;SDS011;60406;48.408;13.392;2023-08-12T18:04:15;3.30;;;2.60;;
69951;SDS011;60406;48.408;13.392;2023-08-12T18:09:16;4.35;;;2.50;;
69951;SDS011;60406;48.408;13.392;2023-08-12T18:14:17;5.70;;;3.60;;
69951;SDS011;60406;48.408;13.392;2023-08-12T18:19:18;4.63;;;2.80;;
69951;SDS011;60406;48.408;13.392;2023-08-12T18:24:19;2.67;;;2.47;;
69951;SDS011;60406;48.408;13.392;2023-08-12T18:29:20;3.70;;;2.72;;
69951;SDS011;60406;48.408;13.392;2023-08-12T18:34:20;3.33;;;3.03;;
69951;SDS011;60406;48.408;13.392;2023-08-12T18:39:21;5.03;;;2.53;;
69951;SDS011;60406;48.408;13.392;2023-08-12T18:44:22;3.38;;;3.08;;
69951;SDS011;60406;48.408;13.392;2023-08-12T18:49:23;6.25;;;3.15;;
69951;SDS011;60406;48.408;13.392;2023-08-12T18:54:24;3.35;;;3.05;;
69951;SDS011;60406;48.408;13.392;2023-08-12T18:59:25;4.90;;;3.65;;
69951;SDS011;60406;48.408;13.392;2023-08-12T19:04:26;3.95;;;3.63;;
69951;SDS011;60406;48.408;13.392;2023-08-12T19:09:27;3.63;;;3.33;;
69951;SDS011;60406;48.408;13.392;2023-08-12T19:14:28;3.80;;;3.50;;
69951;SDS011;60406;48.408;13.392;2023-08-12T19:19:29;7.68;;;3.03;;
69951;SDS011;60406;48.408;13.392;2023-08-12T19:24:29;3.67;;;3.38;;
69951;SDS011;60406;48.408;13.392;2023-08-12T19:29:30;5.18;;;3.47;;
69951;SDS011;60406;48.408;13.392;2023-08-12T19:34:31;6.97;;;3.78;;
69951;SDS011;60406;48.408;13.392;2023-08-12T19:39:32;7.85;;;4.63;;
69951;SDS011;60406;48.408;13.392;2023-08-12T19:44:33;7.00;;;4.82;;
69951;SDS011;60406;48.408;13.392;2023-08-12T19:49:34;6.50;;;4.78;;
69951;SDS011;60406;48.408;13.392;2023-08-12T19:54:35;6.80;;;4.35;;
69951;SDS011;60406;48.408;13.392;2023-08-12T19:59:35;5.15;;;4.05;;
69951;SDS011;60406;48.408;13.392;2023-08-12T20:04:36;3.85;;;3.55;;
69951;SDS011;60406;48.408;13.392;2023-08-12T20:09:37;6.05;;;3.60;;
69951;SDS011;60406;48.408;13.392;2023-08-12T20:14:38;4.00;;;3.60;;
69951;SDS011;60406;48.408;13.392;2023-08-12T20:19:39;5.43;;;4.30;;
69951;SDS011;60406;48.408;13.392;2023-08-12T20:24:40;4.43;;;3.97;;
69951;SDS011;60406;48.408;13.392;2023-08-12T20:29:41;4.57;;;4.20;;
69951;SDS011;60406;48.408;13.392;2023-08-12T20:34:42;4.97;;;4.13;;
69951;SDS011;60406;48.408;13.392;2023-08-12T20:39:43;5.30;;;4.80;;
69951;SDS011;60406;48.408;13.392;2023-08-12T20:44:44;6.80;;;5.95;;
69951;SDS011;60406;48.408;13.392;2023-08-12T20:49:45;7.78;;;6.35;;
69951;SDS011;60406;48.408;13.392;2023-08-12T20:54:45;7.10;;;6.35;;
69951;SDS011;60406;48.408;13.392;2023-08-12T20:59:48;6.85;;;6.15;;
69951;SDS011;60406;48.408;13.392;2023-08-12T21:04:49;7.57;;;6.53;;
69951;SDS011;60406;48.408;13.392;2023-08-12T21:09:50;6.25;;;5.75;;
69951;SDS011;60406;48.408;13.392;2023-08-12T21:14:51;10.02;;;6.50;;
69951;SDS011;60406;48.408;13.392;2023-08-12T21:19:52;6.03;;;5.40;;
69951;SDS011;60406;48.408;13.392;2023-08-12T21:24:53;6.15;;;5.65;;
69951;SDS011;60406;48.408;13.392;2023-08-12T21:29:53;6.05;;;5.45;;
69951;SDS011;60406;48.408;13.392;2023-08-12T21:34:54;6.78;;;6.18;;
69951;SDS011;60406;48.408;13.392;2023-08-12T21:39:55;8.80;;;6.75;;
69951;SDS011;60406;48.408;13.392;2023-08-12T21:44:56;8.77;;;7.60;;
69951;SDS011;60406;48.408;13.392;2023-08-12T21:49:57;6.50;;;5.95;;
69951;SDS011;60406;48.408;13.392;2023-08-12T21:54:58;9.30;;;6.88;;
69951;SDS011;60406;48.408;13.392;2023-08-12T21:59:59;6.68;;;6.05;;
69951;SDS011;60406;48.408;13.392;2023-08-12T22:05:00;7.40;;;6.75;;
69951;SDS011;60406;48.408;13.392;2023-08-12T22:10:00;8.90;;;7.00;;
69951;SDS011;60406;48.408;13.392;2023-08-12T22:15:03;7.45;;;6.70;;
69951;SDS011;60406;48.408;13.392;2023-08-12T22:20:04;11.02;;;7.20;;
69951;SDS011;60406;48.408;13.392;2023-08-12T22:25:06;7.93;;;7.13;;
69951;SDS011;60406;48.408;13.392;2023-08-12T22:30:07;7.40;;;6.70;;
69951;SDS011;60406;48.408;13.392;2023-08-12T22:35:08;9.88;;;7.55;;
69951;SDS011;60406;48.408;13.392;2023-08-12T22:40:09;7.88;;;7.15;;
69951;SDS011;60406;48.408;13.392;2023-08-12T22:45:10;8.32;;;7.18;;
69951;SDS011;60406;48.408;13.392;2023-08-12T22:50:11;6.35;;;5.68;;
69951;SDS011;60406;48.408;13.392;2023-08-12T22:55:11;7.47;;;5.95;;
69951;SDS011;60406;48.408;13.392;2023-08-12T23:00:12;9.48;;;5.57;;
69951;SDS011;60406;48.408;13.392;2023-08-12T23:05:13;6.43;;;5.82;;
69951;SDS011;60406;48.408;13.392;2023-08-12T23:10:14;10.35;;;6.18;;
69951;SDS011;60406;48.408;13.392;2023-08-12T23:15:15;5.68;;;5.15;;
69951;SDS011;60406;48.408;13.392;2023-08-12T23:20:16;6.00;;;5.40;;
69951;SDS011;60406;48.408;13.392;2023-08-12T23:25:17;7.20;;;5.57;;
69951;SDS011;60406;48.408;13.392;2023-08-12T23:30:18;9.25;;;5.93;;
69951;SDS011;60406;48.408;13.392;2023-08-12T23:35:19;7.45;;;6.75;;
69951;SDS011;60406;48.408;13.392;2023-08-12T23:40:20;8.10;;;6.80;;
69951;SDS011;60406;48.408;13.392;2023-08-12T23:45:20;7.60;;;6.80;;
69951;SDS011;60406;48.408;13.392;2023-08-12T23:50:21;8.50;;;7.07;;
69951;SDS011;60406;48.408;13.392;2023-08-12T23:55:22;7.68;;;6.97;;
